createdAt,value
2019-02-18T11:45:36.716Z,7.28
2019-02-18T11:50:31.890Z,6.77
2019-02-18T11:55:27.177Z,6.80
2019-02-18T12:00:22.199Z,6.30
2019-02-18T12:05:17.493Z,6.67
2019-02-18T12:10:13.016Z,6.50
2019-02-18T12:15:09.520Z,5.73
2019-02-18T12:20:05.430Z,6.30
2019-02-18T12:25:00.412Z,6.40
2019-02-18T12:29:56.023Z,6.27
2019-02-18T12:34:50.988Z,5.70
2019-02-18T12:39:46.321Z,6.23
2019-02-18T12:44:41.218Z,5.67
2019-02-18T12:49:36.874Z,6.03
2019-02-18T12:54:31.909Z,5.63
2019-02-18T12:59:28.843Z,5.57
2019-02-18T13:04:23.931Z,6.30
2019-02-18T13:09:19.538Z,5.70
2019-02-18T13:14:14.461Z,5.70
2019-02-18T13:19:09.420Z,5.90
2019-02-18T13:24:04.500Z,5.83
2019-02-18T13:28:59.719Z,5.83
2019-02-18T13:33:54.733Z,6.00
2019-02-18T13:38:50.060Z,6.30
2019-02-18T13:43:45.032Z,5.87
2019-02-18T13:48:40.265Z,6.10
2019-02-18T13:53:35.496Z,5.90
2019-02-18T13:58:31.890Z,6.47
2019-02-18T14:03:27.492Z,6.77
2019-02-18T14:08:22.502Z,6.20
2019-02-18T14:13:17.498Z,6.50
2019-02-18T14:18:12.745Z,7.00
2019-02-18T14:23:16.986Z,7.00
2019-02-18T14:28:11.892Z,7.13
2019-02-18T14:33:07.149Z,6.47
2019-02-18T14:38:02.720Z,6.97
2019-02-18T14:42:58.327Z,6.47
2019-02-18T14:47:53.429Z,7.10
2019-02-18T14:52:48.431Z,7.87
2019-02-18T14:57:43.448Z,8.57
2019-02-18T15:02:38.508Z,7.00
2019-02-18T15:07:48.785Z,6.37
2019-02-18T15:12:43.726Z,7.13
2019-02-18T15:17:38.669Z,7.80
2019-02-18T15:22:33.921Z,7.78
2019-02-18T15:27:28.934Z,7.22
2019-02-18T15:32:24.454Z,6.53
2019-02-18T15:37:19.481Z,6.63
2019-02-18T15:42:15.989Z,7.00
2019-02-18T15:47:11.040Z,7.23
2019-02-18T15:52:07.485Z,6.87
2019-02-18T15:57:02.814Z,7.97
2019-02-18T16:01:58.140Z,7.50
2019-02-18T16:06:53.619Z,6.90
2019-02-18T16:11:48.979Z,7.07
2019-02-18T16:16:45.596Z,7.33
2019-02-18T16:21:40.613Z,7.63
2019-02-18T16:26:36.687Z,7.73
2019-02-18T16:31:31.657Z,7.63
2019-02-18T16:36:27.633Z,8.45
2019-02-18T16:41:22.922Z,7.40
2019-02-18T16:46:18.117Z,7.50
2019-02-18T16:51:14.060Z,7.80
2019-02-18T16:56:09.773Z,8.00
2019-02-18T17:01:05.910Z,8.30
2019-02-18T17:06:01.159Z,10.28
2019-02-18T17:11:02.224Z,9.97
2019-02-18T17:15:57.235Z,10.07
2019-02-18T17:20:52.628Z,9.57
2019-02-18T17:25:47.597Z,10.03
2019-02-18T17:30:43.537Z,12.60
2019-02-18T17:35:38.509Z,11.50
2019-02-18T17:40:33.986Z,12.83
2019-02-18T17:45:29.302Z,11.33
2019-02-18T17:50:24.324Z,9.23
2019-02-18T17:55:26.663Z,10.00
2019-02-18T18:00:30.122Z,10.60
2019-02-18T18:05:25.512Z,9.20
2019-02-18T18:10:20.559Z,15.77
2019-02-18T18:15:15.705Z,14.53
2019-02-18T18:20:11.192Z,14.03
2019-02-18T18:25:06.601Z,12.33
2019-02-18T18:30:02.339Z,11.43
2019-02-18T18:34:57.281Z,11.23
2019-02-18T18:39:52.241Z,11.07
2019-02-18T18:44:47.179Z,11.50
2019-02-18T18:49:42.091Z,11.57
